This is the latest recevied weather packets stored in our database for station/object KQ4HEI. If no packets are shown the sender has not sent any weather packets the latest 10 day(s).
| Time | Temp. | Humidity | Pressure | Rain* | Wind** | Luminosity | Snow |
|---|---|---|---|---|---|---|---|
| 1777499492 | 27.22° C | 70% | 1010.5 hPa | 0 mm | - | - | - |
| 1777498892 | 27.78° C | 69% | 1010.4 hPa | 0 mm | - | - | - |
| 1777498291 | 27.78° C | 68% | 1010.6 hPa | 0 mm | - | - | - |
| 1777497693 | 28.33° C | 65% | 1010.7 hPa | 0 mm | - | - | - |
| 1777497091 | 29.44° C | 61% | 1010.7 hPa | 0 mm | - | - | - |
| 1777496492 | 30° C | 59% | 1010.7 hPa | 0 mm | - | - | - |
| 1777495891 | 31.11° C | 57% | 1010.6 hPa | 0 mm | - | - | - |
| 1777495292 | 30.56° C | 56% | 1010.9 hPa | 0 mm | - | - | - |
| 1777494693 | 31.11° C | 56% | 1011.1 hPa | 0 mm | - | - | - |
| 1777494092 | 31.11° C | 56% | 1011.2 hPa | 0 mm | - | - | - |
| 1777493492 | 31.11° C | 54% | 1011.2 hPa | 0 mm | - | - | - |
| 1777492892 | 31.67° C | 52% | 1011.6 hPa | 0 mm | - | - | - |
| 1777492291 | 31.11° C | 54% | 1011.8 hPa | 0 mm | - | - | - |
| 1777491692 | 31.67° C | 52% | 1011.9 hPa | 0 mm | - | - | - |
| 1777491092 | 31.67° C | 52% | 1012.2 hPa | 0 mm | - | - | - |
| 1777490492 | 32.22° C | 49% | 1012.2 hPa | 0 mm | - | - | - |
| 1777489891 | 32.22° C | 49% | 1012.4 hPa | 0 mm | - | - | - |
| 1777489292 | 32.22° C | 51% | 1012.5 hPa | 0 mm | - | - | - |
| 1777488691 | 31.67° C | 51% | 1012.6 hPa | 0 mm | - | - | - |
| 1777488092 | 31.67° C | 50% | 1012.8 hPa | 0 mm | - | - | - |
| 1777487491 | 32.22° C | 51% | 1012.9 hPa | 0 mm | - | - | - |
| 1777486892 | 31.67° C | 52% | 1013.3 hPa | 0 mm | - | - | - |
| 1777486291 | 30.56° C | 54% | 1013.3 hPa | 0 mm | - | - | - |
| 1777485692 | 31.11° C | 54% | 1013.4 hPa | 0 mm | - | - | - |
| 1777485091 | 31.11° C | 54% | 1013.6 hPa | 0 mm | - | - | - |
* Rain latest hour (hover to see other rain measurements)
** Current wind speed in m/s (hover to see current wind gust speed)